Mossley, United Kingdom
Current Conditions -  °F | °C
As of 8:20 PM on Wednesday 28 Jan 2015 (Local Time) from EGCC Reporting Station
Scattered Clouds Scattered Clouds  
Wind Chill: 27°   Ceiling: Unl
Heat Index: 37°   Visibility: 6mi
Dew Point: 30°   Wind: 20mph
Humidity: 75%   Direction: 240°WSW
Pressure: 29.38"   Gusts: NA
Location:  53.51°N, 2.03°W
Report Text: EGCC 282020Z 24017KT 9999 FEW032CB SCT047 03/M01 Q0995
Loading
Personal Weather Stations






























Interactive Weather Map New forecast layout! Learn more

10-Day Weather Forecast

Advertisements
Track Severe Weather on mobile